Terminal Aerodrome Forecast
Issued by NWS Shreveport, LA

Home | Current Version | Previous Version | Text Only | Print | Product List | Glossary On
Versions: 1 2 3 4 5 6 7 8 9 10 11 12 13 14 15
000
FTUS44 KSHV 040737 AAA
TAFTYR
TAF AMD
KTYR 040737Z 0408/0506 06007KT P6SM VCSH OVC004
     FM040900 06007KT 4SM BR VCSH OVC003
     FM041500 02009KT 4SM -RA BR OVC008
     FM042000 01008KT P6SM VCSH OVC010
     FM050000 04005KT P6SM OVC015=

USA.gov is the U.S. government's official web portal to all federal, state and local government web resources and services.